sensor_id;sensor_type;location;lat;lon;timestamp;P1;durP1;ratioP1;P2;durP2;ratioP2
10727;SDS011;5415;59.322;18.246;2022-12-07T00:00:52;6.47;;;3.30;;
10727;SDS011;5415;59.322;18.246;2022-12-07T00:03:21;6.40;;;3.60;;
10727;SDS011;5415;59.322;18.246;2022-12-07T00:05:50;6.37;;;3.30;;
10727;SDS011;5415;59.322;18.246;2022-12-07T00:08:18;10.10;;;3.40;;
10727;SDS011;5415;59.322;18.246;2022-12-07T00:10:46;6.17;;;2.80;;
10727;SDS011;5415;59.322;18.246;2022-12-07T00:13:13;8.60;;;3.43;;
10727;SDS011;5415;59.322;18.246;2022-12-07T00:15:41;7.07;;;2.97;;
10727;SDS011;5415;59.322;18.246;2022-12-07T00:18:08;7.57;;;3.07;;
10727;SDS011;5415;59.322;18.246;2022-12-07T00:20:36;8.37;;;3.50;;
10727;SDS011;5415;59.322;18.246;2022-12-07T00:23:05;6.07;;;3.10;;
10727;SDS011;5415;59.322;18.246;2022-12-07T00:25:35;8.07;;;3.00;;
10727;SDS011;5415;59.322;18.246;2022-12-07T00:28:03;6.67;;;3.10;;
10727;SDS011;5415;59.322;18.246;2022-12-07T00:30:31;6.00;;;2.93;;
10727;SDS011;5415;59.322;18.246;2022-12-07T00:32:59;6.23;;;3.17;;
10727;SDS011;5415;59.322;18.246;2022-12-07T00:35:26;5.83;;;3.00;;
10727;SDS011;5415;59.322;18.246;2022-12-07T00:37:54;7.77;;;2.97;;
10727;SDS011;5415;59.322;18.246;2022-12-07T00:40:23;5.83;;;3.00;;
10727;SDS011;5415;59.322;18.246;2022-12-07T00:42:50;7.77;;;3.30;;
10727;SDS011;5415;59.322;18.246;2022-12-07T00:45:18;9.17;;;3.00;;
10727;SDS011;5415;59.322;18.246;2022-12-07T00:47:45;7.27;;;3.10;;
10727;SDS011;5415;59.322;18.246;2022-12-07T00:50:12;6.07;;;2.97;;
10727;SDS011;5415;59.322;18.246;2022-12-07T00:52:40;4.50;;;2.87;;
10727;SDS011;5415;59.322;18.246;2022-12-07T00:55:08;6.70;;;3.13;;
10727;SDS011;5415;59.322;18.246;2022-12-07T00:57:37;5.50;;;2.80;;
10727;SDS011;5415;59.322;18.246;2022-12-07T01:00:05;8.27;;;3.20;;
10727;SDS011;5415;59.322;18.246;2022-12-07T01:02:33;8.13;;;2.90;;
10727;SDS011;5415;59.322;18.246;2022-12-07T01:05:01;5.90;;;3.07;;
10727;SDS011;5415;59.322;18.246;2022-12-07T01:07:28;6.43;;;2.80;;
10727;SDS011;5415;59.322;18.246;2022-12-07T01:09:57;6.03;;;2.87;;
10727;SDS011;5415;59.322;18.246;2022-12-07T01:12:25;7.87;;;3.07;;
10727;SDS011;5415;59.322;18.246;2022-12-07T01:14:54;7.67;;;2.97;;
10727;SDS011;5415;59.322;18.246;2022-12-07T01:17:21;9.27;;;2.93;;
10727;SDS011;5415;59.322;18.246;2022-12-07T01:19:50;6.37;;;2.70;;
10727;SDS011;5415;59.322;18.246;2022-12-07T01:22:18;6.53;;;2.93;;
10727;SDS011;5415;59.322;18.246;2022-12-07T01:24:46;4.17;;;2.50;;
10727;SDS011;5415;59.322;18.246;2022-12-07T01:27:13;7.60;;;2.67;;
10727;SDS011;5415;59.322;18.246;2022-12-07T01:29:40;5.73;;;2.93;;
10727;SDS011;5415;59.322;18.246;2022-12-07T01:32:10;7.87;;;3.13;;
10727;SDS011;5415;59.322;18.246;2022-12-07T01:34:38;7.97;;;2.97;;
10727;SDS011;5415;59.322;18.246;2022-12-07T01:37:05;7.60;;;2.90;;
10727;SDS011;5415;59.322;18.246;2022-12-07T01:39:32;7.57;;;2.90;;
10727;SDS011;5415;59.322;18.246;2022-12-07T01:41:59;7.83;;;2.80;;
10727;SDS011;5415;59.322;18.246;2022-12-07T01:44:28;5.87;;;2.80;;
10727;SDS011;5415;59.322;18.246;2022-12-07T01:46:58;5.40;;;2.70;;
10727;SDS011;5415;59.322;18.246;2022-12-07T01:49:29;8.20;;;2.80;;
10727;SDS011;5415;59.322;18.246;2022-12-07T01:52:01;4.43;;;2.47;;
10727;SDS011;5415;59.322;18.246;2022-12-07T01:54:29;8.07;;;3.20;;
10727;SDS011;5415;59.322;18.246;2022-12-07T01:56:56;7.27;;;2.57;;
10727;SDS011;5415;59.322;18.246;2022-12-07T01:59:24;7.27;;;2.67;;
10727;SDS011;5415;59.322;18.246;2022-12-07T02:01:52;7.27;;;3.00;;
10727;SDS011;5415;59.322;18.246;2022-12-07T02:04:22;6.10;;;2.87;;
10727;SDS011;5415;59.322;18.246;2022-12-07T02:06:52;7.97;;;2.97;;
10727;SDS011;5415;59.322;18.246;2022-12-07T02:09:21;6.07;;;2.70;;
10727;SDS011;5415;59.322;18.246;2022-12-07T02:11:48;6.80;;;2.80;;
10727;SDS011;5415;59.322;18.246;2022-12-07T02:14:16;9.00;;;3.00;;
10727;SDS011;5415;59.322;18.246;2022-12-07T02:16:47;6.63;;;2.80;;
10727;SDS011;5415;59.322;18.246;2022-12-07T02:19:32;5.70;;;2.73;;
10727;SDS011;5415;59.322;18.246;2022-12-07T02:22:11;6.23;;;2.60;;
10727;SDS011;5415;59.322;18.246;2022-12-07T02:24:45;3.80;;;2.70;;
10727;SDS011;5415;59.322;18.246;2022-12-07T02:27:24;4.47;;;2.97;;
10727;SDS011;5415;59.322;18.246;2022-12-07T02:30:00;8.03;;;2.93;;
10727;SDS011;5415;59.322;18.246;2022-12-07T02:32:31;6.40;;;2.80;;
10727;SDS011;5415;59.322;18.246;2022-12-07T02:35:02;2.80;;;2.10;;
10727;SDS011;5415;59.322;18.246;2022-12-07T02:37:33;5.17;;;2.50;;
10727;SDS011;5415;59.322;18.246;2022-12-07T02:40:04;5.97;;;2.30;;
10727;SDS011;5415;59.322;18.246;2022-12-07T02:42:34;4.70;;;2.43;;
10727;SDS011;5415;59.322;18.246;2022-12-07T02:45:06;4.93;;;3.03;;
10727;SDS011;5415;59.322;18.246;2022-12-07T02:47:34;5.90;;;2.60;;
10727;SDS011;5415;59.322;18.246;2022-12-07T02:50:03;5.20;;;2.93;;
10727;SDS011;5415;59.322;18.246;2022-12-07T02:52:32;5.13;;;2.63;;
10727;SDS011;5415;59.322;18.246;2022-12-07T02:55:00;6.90;;;2.90;;
10727;SDS011;5415;59.322;18.246;2022-12-07T02:57:32;6.30;;;2.40;;
10727;SDS011;5415;59.322;18.246;2022-12-07T03:00:06;6.60;;;2.60;;
10727;SDS011;5415;59.322;18.246;2022-12-07T03:02:38;8.73;;;2.40;;
10727;SDS011;5415;59.322;18.246;2022-12-07T03:05:12;8.23;;;2.70;;
10727;SDS011;5415;59.322;18.246;2022-12-07T03:07:43;6.00;;;2.83;;
10727;SDS011;5415;59.322;18.246;2022-12-07T03:10:14;9.23;;;2.43;;
10727;SDS011;5415;59.322;18.246;2022-12-07T03:12:45;4.77;;;2.27;;
10727;SDS011;5415;59.322;18.246;2022-12-07T03:15:17;5.57;;;2.70;;
10727;SDS011;5415;59.322;18.246;2022-12-07T03:17:45;8.07;;;2.40;;
10727;SDS011;5415;59.322;18.246;2022-12-07T03:20:14;7.37;;;2.53;;
10727;SDS011;5415;59.322;18.246;2022-12-07T03:22:43;6.40;;;2.70;;
10727;SDS011;5415;59.322;18.246;2022-12-07T03:25:15;7.20;;;2.60;;
10727;SDS011;5415;59.322;18.246;2022-12-07T03:27:45;5.47;;;2.80;;
10727;SDS011;5415;59.322;18.246;2022-12-07T03:30:19;9.73;;;3.17;;
10727;SDS011;5415;59.322;18.246;2022-12-07T03:32:48;11.20;;;3.00;;
10727;SDS011;5415;59.322;18.246;2022-12-07T03:35:19;5.80;;;2.70;;
10727;SDS011;5415;59.322;18.246;2022-12-07T03:37:48;7.27;;;2.87;;
10727;SDS011;5415;59.322;18.246;2022-12-07T03:40:19;7.87;;;2.87;;
10727;SDS011;5415;59.322;18.246;2022-12-07T03:42:49;9.03;;;2.80;;
10727;SDS011;5415;59.322;18.246;2022-12-07T03:45:16;8.03;;;2.70;;
10727;SDS011;5415;59.322;18.246;2022-12-07T03:47:47;5.87;;;2.70;;
10727;SDS011;5415;59.322;18.246;2022-12-07T03:50:17;7.33;;;3.00;;
10727;SDS011;5415;59.322;18.246;2022-12-07T03:52:51;8.23;;;2.83;;
10727;SDS011;5415;59.322;18.246;2022-12-07T03:55:22;6.73;;;2.70;;
10727;SDS011;5415;59.322;18.246;2022-12-07T03:57:51;6.00;;;2.73;;
10727;SDS011;5415;59.322;18.246;2022-12-07T04:00:21;5.23;;;2.40;;
10727;SDS011;5415;59.322;18.246;2022-12-07T04:02:52;8.90;;;2.80;;
10727;SDS011;5415;59.322;18.246;2022-12-07T04:05:20;5.03;;;2.87;;
10727;SDS011;5415;59.322;18.246;2022-12-07T04:07:47;9.83;;;3.07;;
10727;SDS011;5415;59.322;18.246;2022-12-07T04:10:17;9.40;;;3.07;;
10727;SDS011;5415;59.322;18.246;2022-12-07T04:12:45;6.80;;;3.03;;
10727;SDS011;5415;59.322;18.246;2022-12-07T04:15:13;8.47;;;2.93;;
10727;SDS011;5415;59.322;18.246;2022-12-07T04:17:40;4.73;;;2.77;;
10727;SDS011;5415;59.322;18.246;2022-12-07T04:20:10;6.10;;;2.70;;
10727;SDS011;5415;59.322;18.246;2022-12-07T04:22:39;5.30;;;2.50;;
10727;SDS011;5415;59.322;18.246;2022-12-07T04:25:08;8.97;;;2.50;;
10727;SDS011;5415;59.322;18.246;2022-12-07T04:27:36;4.57;;;2.70;;
10727;SDS011;5415;59.322;18.246;2022-12-07T04:30:04;8.60;;;2.50;;
10727;SDS011;5415;59.322;18.246;2022-12-07T04:32:32;5.03;;;2.53;;
10727;SDS011;5415;59.322;18.246;2022-12-07T04:34:59;4.57;;;2.40;;
10727;SDS011;5415;59.322;18.246;2022-12-07T04:37:28;4.93;;;2.40;;
10727;SDS011;5415;59.322;18.246;2022-12-07T04:39:57;6.70;;;2.50;;
10727;SDS011;5415;59.322;18.246;2022-12-07T04:42:26;5.43;;;2.40;;
10727;SDS011;5415;59.322;18.246;2022-12-07T04:44:53;6.27;;;2.43;;
10727;SDS011;5415;59.322;18.246;2022-12-07T04:47:20;3.50;;;2.20;;
10727;SDS011;5415;59.322;18.246;2022-12-07T04:49:48;3.97;;;2.00;;
10727;SDS011;5415;59.322;18.246;2022-12-07T04:52:16;5.40;;;2.43;;
10727;SDS011;5415;59.322;18.246;2022-12-07T04:54:45;5.10;;;2.40;;
10727;SDS011;5415;59.322;18.246;2022-12-07T04:57:12;3.87;;;2.33;;
10727;SDS011;5415;59.322;18.246;2022-12-07T04:59:40;4.87;;;2.10;;
10727;SDS011;5415;59.322;18.246;2022-12-07T05:02:07;4.77;;;2.00;;
10727;SDS011;5415;59.322;18.246;2022-12-07T05:04:35;7.93;;;2.30;;
10727;SDS011;5415;59.322;18.246;2022-12-07T05:07:02;4.87;;;2.20;;
10727;SDS011;5415;59.322;18.246;2022-12-07T05:09:30;3.17;;;2.27;;
10727;SDS011;5415;59.322;18.246;2022-12-07T05:11:59;7.13;;;2.03;;
10727;SDS011;5415;59.322;18.246;2022-12-07T05:14:27;2.83;;;1.80;;
10727;SDS011;5415;59.322;18.246;2022-12-07T05:16:54;4.60;;;2.17;;
10727;SDS011;5415;59.322;18.246;2022-12-07T05:19:23;4.33;;;2.00;;
10727;SDS011;5415;59.322;18.246;2022-12-07T05:21:52;4.43;;;2.30;;
10727;SDS011;5415;59.322;18.246;2022-12-07T05:24:19;6.53;;;2.20;;
10727;SDS011;5415;59.322;18.246;2022-12-07T05:26:47;8.40;;;4.80;;
10727;SDS011;5415;59.322;18.246;2022-12-07T05:29:16;27.83;;;17.37;;
10727;SDS011;5415;59.322;18.246;2022-12-07T05:31:44;16.83;;;11.60;;
10727;SDS011;5415;59.322;18.246;2022-12-07T05:34:12;11.37;;;9.30;;
10727;SDS011;5415;59.322;18.246;2022-12-07T05:36:40;7.83;;;5.70;;
10727;SDS011;5415;59.322;18.246;2022-12-07T05:39:09;6.83;;;4.20;;
10727;SDS011;5415;59.322;18.246;2022-12-07T05:41:37;4.80;;;3.27;;
10727;SDS011;5415;59.322;18.246;2022-12-07T05:44:22;5.23;;;3.10;;
10727;SDS011;5415;59.322;18.246;2022-12-07T05:46:50;8.70;;;2.40;;
10727;SDS011;5415;59.322;18.246;2022-12-07T05:49:17;3.97;;;2.10;;
10727;SDS011;5415;59.322;18.246;2022-12-07T05:51:45;4.53;;;1.87;;
10727;SDS011;5415;59.322;18.246;2022-12-07T05:54:13;7.10;;;2.17;;
10727;SDS011;5415;59.322;18.246;2022-12-07T05:56:41;5.70;;;1.97;;
10727;SDS011;5415;59.322;18.246;2022-12-07T05:59:08;6.57;;;2.13;;
10727;SDS011;5415;59.322;18.246;2022-12-07T06:01:55;3.77;;;2.00;;
10727;SDS011;5415;59.322;18.246;2022-12-07T06:04:23;3.97;;;2.10;;
10727;SDS011;5415;59.322;18.246;2022-12-07T06:06:51;3.13;;;2.10;;
10727;SDS011;5415;59.322;18.246;2022-12-07T06:09:19;5.60;;;2.20;;
10727;SDS011;5415;59.322;18.246;2022-12-07T06:11:47;8.87;;;2.40;;
10727;SDS011;5415;59.322;18.246;2022-12-07T06:14:32;8.30;;;2.43;;
10727;SDS011;5415;59.322;18.246;2022-12-07T06:17:01;5.47;;;2.83;;
10727;SDS011;5415;59.322;18.246;2022-12-07T06:19:29;5.13;;;2.63;;
10727;SDS011;5415;59.322;18.246;2022-12-07T06:21:57;6.00;;;2.60;;
10727;SDS011;5415;59.322;18.246;2022-12-07T06:24:25;3.57;;;2.23;;
10727;SDS011;5415;59.322;18.246;2022-12-07T06:26:53;6.53;;;2.30;;
10727;SDS011;5415;59.322;18.246;2022-12-07T06:29:20;4.83;;;2.10;;
10727;SDS011;5415;59.322;18.246;2022-12-07T06:31:48;6.40;;;2.30;;
10727;SDS011;5415;59.322;18.246;2022-12-07T06:34:18;3.73;;;1.77;;
10727;SDS011;5415;59.322;18.246;2022-12-07T06:36:47;5.67;;;2.30;;
10727;SDS011;5415;59.322;18.246;2022-12-07T06:39:16;4.07;;;2.10;;
10727;SDS011;5415;59.322;18.246;2022-12-07T06:41:44;3.27;;;2.00;;
10727;SDS011;5415;59.322;18.246;2022-12-07T06:44:11;5.07;;;1.77;;
10727;SDS011;5415;59.322;18.246;2022-12-07T06:46:39;4.67;;;1.60;;
10727;SDS011;5415;59.322;18.246;2022-12-07T06:49:07;3.57;;;1.93;;
10727;SDS011;5415;59.322;18.246;2022-12-07T06:51:36;5.20;;;1.90;;
10727;SDS011;5415;59.322;18.246;2022-12-07T06:54:06;5.63;;;1.70;;
10727;SDS011;5415;59.322;18.246;2022-12-07T06:56:34;3.67;;;2.37;;
10727;SDS011;5415;59.322;18.246;2022-12-07T06:59:01;6.33;;;2.83;;
10727;SDS011;5415;59.322;18.246;2022-12-07T07:01:30;10.23;;;3.10;;
10727;SDS011;5415;59.322;18.246;2022-12-07T07:03:57;4.60;;;2.30;;
10727;SDS011;5415;59.322;18.246;2022-12-07T07:06:26;2.73;;;1.73;;
10727;SDS011;5415;59.322;18.246;2022-12-07T07:08:55;4.23;;;1.50;;
10727;SDS011;5415;59.322;18.246;2022-12-07T07:11:23;4.80;;;2.10;;
10727;SDS011;5415;59.322;18.246;2022-12-07T07:13:50;3.33;;;1.80;;
10727;SDS011;5415;59.322;18.246;2022-12-07T07:16:18;3.20;;;1.83;;
10727;SDS011;5415;59.322;18.246;2022-12-07T07:18:46;6.13;;;2.03;;
10727;SDS011;5415;59.322;18.246;2022-12-07T07:21:14;8.60;;;2.10;;
10727;SDS011;5415;59.322;18.246;2022-12-07T07:23:41;3.07;;;1.70;;
10727;SDS011;5415;59.322;18.246;2022-12-07T07:26:11;2.70;;;1.60;;
10727;SDS011;5415;59.322;18.246;2022-12-07T07:28:38;4.20;;;2.27;;
10727;SDS011;5415;59.322;18.246;2022-12-07T07:31:08;14.33;;;2.10;;
10727;SDS011;5415;59.322;18.246;2022-12-07T07:33:44;5.00;;;1.90;;
10727;SDS011;5415;59.322;18.246;2022-12-07T07:36:12;5.03;;;1.90;;
10727;SDS011;5415;59.322;18.246;2022-12-07T07:38:40;5.97;;;1.70;;
10727;SDS011;5415;59.322;18.246;2022-12-07T07:41:08;5.37;;;2.07;;
10727;SDS011;5415;59.322;18.246;2022-12-07T07:43:37;5.20;;;1.80;;
10727;SDS011;5415;59.322;18.246;2022-12-07T07:46:05;6.53;;;2.00;;
10727;SDS011;5415;59.322;18.246;2022-12-07T07:48:34;5.93;;;2.03;;
10727;SDS011;5415;59.322;18.246;2022-12-07T07:51:04;3.00;;;1.70;;
10727;SDS011;5415;59.322;18.246;2022-12-07T07:53:34;2.80;;;1.70;;
10727;SDS011;5415;59.322;18.246;2022-12-07T07:56:02;3.53;;;1.73;;
10727;SDS011;5415;59.322;18.246;2022-12-07T07:58:29;4.57;;;2.10;;
10727;SDS011;5415;59.322;18.246;2022-12-07T08:00:59;3.67;;;2.30;;
10727;SDS011;5415;59.322;18.246;2022-12-07T08:03:30;2.33;;;1.57;;
10727;SDS011;5415;59.322;18.246;2022-12-07T08:05:58;5.43;;;1.90;;
10727;SDS011;5415;59.322;18.246;2022-12-07T08:08:25;2.23;;;1.70;;
10727;SDS011;5415;59.322;18.246;2022-12-07T08:10:52;3.83;;;1.90;;
10727;SDS011;5415;59.322;18.246;2022-12-07T08:13:20;5.03;;;2.03;;
10727;SDS011;5415;59.322;18.246;2022-12-07T08:15:48;5.20;;;2.60;;
10727;SDS011;5415;59.322;18.246;2022-12-07T08:18:17;5.33;;;3.07;;
10727;SDS011;5415;59.322;18.246;2022-12-07T08:20:44;4.13;;;2.50;;
10727;SDS011;5415;59.322;18.246;2022-12-07T08:23:12;8.43;;;3.40;;
10727;SDS011;5415;59.322;18.246;2022-12-07T08:25:39;7.30;;;2.67;;
10727;SDS011;5415;59.322;18.246;2022-12-07T08:28:07;9.23;;;2.33;;
10727;SDS011;5415;59.322;18.246;2022-12-07T08:30:36;5.40;;;2.30;;
10727;SDS011;5415;59.322;18.246;2022-12-07T08:33:04;5.13;;;2.10;;
10727;SDS011;5415;59.322;18.246;2022-12-07T08:35:34;4.10;;;1.90;;
10727;SDS011;5415;59.322;18.246;2022-12-07T08:38:02;4.27;;;1.70;;
10727;SDS011;5415;59.322;18.246;2022-12-07T08:40:30;3.90;;;1.97;;
10727;SDS011;5415;59.322;18.246;2022-12-07T08:42:58;5.23;;;1.83;;
10727;SDS011;5415;59.322;18.246;2022-12-07T08:45:26;6.93;;;3.00;;
10727;SDS011;5415;59.322;18.246;2022-12-07T08:47:58;5.23;;;2.30;;
10727;SDS011;5415;59.322;18.246;2022-12-07T08:50:29;6.47;;;2.30;;
10727;SDS011;5415;59.322;18.246;2022-12-07T08:53:00;9.17;;;2.33;;
10727;SDS011;5415;59.322;18.246;2022-12-07T08:55:28;9.20;;;2.40;;
10727;SDS011;5415;59.322;18.246;2022-12-07T08:57:56;6.93;;;2.60;;
10727;SDS011;5415;59.322;18.246;2022-12-07T09:00:24;6.03;;;2.43;;
10727;SDS011;5415;59.322;18.246;2022-12-07T09:02:53;8.33;;;2.70;;
10727;SDS011;5415;59.322;18.246;2022-12-07T09:05:21;10.57;;;3.57;;
10727;SDS011;5415;59.322;18.246;2022-12-07T09:07:49;6.97;;;2.67;;
10727;SDS011;5415;59.322;18.246;2022-12-07T09:10:20;7.27;;;3.00;;
10727;SDS011;5415;59.322;18.246;2022-12-07T09:12:49;10.80;;;3.37;;
10727;SDS011;5415;59.322;18.246;2022-12-07T09:15:17;7.50;;;3.07;;
10727;SDS011;5415;59.322;18.246;2022-12-07T09:17:44;7.03;;;2.90;;
10727;SDS011;5415;59.322;18.246;2022-12-07T09:20:12;8.70;;;2.73;;
10727;SDS011;5415;59.322;18.246;2022-12-07T09:22:40;10.23;;;3.57;;
10727;SDS011;5415;59.322;18.246;2022-12-07T09:25:07;7.73;;;2.83;;
10727;SDS011;5415;59.322;18.246;2022-12-07T09:27:38;7.00;;;2.30;;
10727;SDS011;5415;59.322;18.246;2022-12-07T09:30:06;6.10;;;2.30;;
10727;SDS011;5415;59.322;18.246;2022-12-07T09:32:34;5.53;;;2.40;;
10727;SDS011;5415;59.322;18.246;2022-12-07T09:35:01;4.77;;;1.57;;
10727;SDS011;5415;59.322;18.246;2022-12-07T09:37:29;3.17;;;1.90;;
10727;SDS011;5415;59.322;18.246;2022-12-07T09:40:00;2.60;;;1.47;;
10727;SDS011;5415;59.322;18.246;2022-12-07T09:42:29;3.30;;;1.40;;
10727;SDS011;5415;59.322;18.246;2022-12-07T09:45:02;2.80;;;1.60;;
10727;SDS011;5415;59.322;18.246;2022-12-07T09:47:32;6.03;;;1.60;;
10727;SDS011;5415;59.322;18.246;2022-12-07T09:50:03;3.13;;;1.70;;
10727;SDS011;5415;59.322;18.246;2022-12-07T09:52:31;4.90;;;1.40;;
10727;SDS011;5415;59.322;18.246;2022-12-07T09:55:01;4.17;;;1.43;;
10727;SDS011;5415;59.322;18.246;2022-12-07T09:57:29;5.07;;;1.83;;
10727;SDS011;5415;59.322;18.246;2022-12-07T10:00:02;2.30;;;1.30;;
10727;SDS011;5415;59.322;18.246;2022-12-07T10:02:35;4.77;;;1.53;;
10727;SDS011;5415;59.322;18.246;2022-12-07T10:05:03;3.27;;;1.70;;
10727;SDS011;5415;59.322;18.246;2022-12-07T10:07:31;6.00;;;2.10;;
10727;SDS011;5415;59.322;18.246;2022-12-07T10:10:01;4.13;;;1.87;;
10727;SDS011;5415;59.322;18.246;2022-12-07T10:12:29;4.63;;;1.90;;
10727;SDS011;5415;59.322;18.246;2022-12-07T10:14:59;2.50;;;1.60;;
10727;SDS011;5415;59.322;18.246;2022-12-07T10:17:39;2.30;;;1.40;;
10727;SDS011;5415;59.322;18.246;2022-12-07T10:20:13;2.40;;;1.30;;
10727;SDS011;5415;59.322;18.246;2022-12-07T10:22:53;3.40;;;1.77;;
10727;SDS011;5415;59.322;18.246;2022-12-07T10:25:21;2.57;;;1.73;;
10727;SDS011;5415;59.322;18.246;2022-12-07T10:27:56;5.03;;;1.87;;
10727;SDS011;5415;59.322;18.246;2022-12-07T10:30:24;5.10;;;1.70;;
10727;SDS011;5415;59.322;18.246;2022-12-07T10:32:53;3.90;;;1.60;;
10727;SDS011;5415;59.322;18.246;2022-12-07T10:35:23;4.77;;;2.10;;
10727;SDS011;5415;59.322;18.246;2022-12-07T10:37:51;4.07;;;1.90;;
10727;SDS011;5415;59.322;18.246;2022-12-07T10:40:26;6.70;;;2.23;;
10727;SDS011;5415;59.322;18.246;2022-12-07T10:43:02;3.30;;;2.00;;
10727;SDS011;5415;59.322;18.246;2022-12-07T10:45:30;4.00;;;1.93;;
10727;SDS011;5415;59.322;18.246;2022-12-07T10:48:01;5.93;;;2.00;;
10727;SDS011;5415;59.322;18.246;2022-12-07T10:50:36;6.33;;;2.07;;
10727;SDS011;5415;59.322;18.246;2022-12-07T10:53:16;4.90;;;2.27;;
10727;SDS011;5415;59.322;18.246;2022-12-07T10:55:55;5.87;;;2.40;;
10727;SDS011;5415;59.322;18.246;2022-12-07T10:58:29;6.07;;;3.20;;
10727;SDS011;5415;59.322;18.246;2022-12-07T11:00:59;2.57;;;1.97;;
10727;SDS011;5415;59.322;18.246;2022-12-07T11:06:30;5.07;;;1.83;;
10727;SDS011;5415;59.322;18.246;2022-12-07T11:11:42;1.97;;;1.30;;
10727;SDS011;5415;59.322;18.246;2022-12-07T11:14:14;3.53;;;1.40;;
10727;SDS011;5415;59.322;18.246;2022-12-07T11:16:51;5.87;;;1.80;;
10727;SDS011;5415;59.322;18.246;2022-12-07T11:19:30;3.97;;;1.70;;
10727;SDS011;5415;59.322;18.246;2022-12-07T11:22:03;3.67;;;1.80;;
10727;SDS011;5415;59.322;18.246;2022-12-07T11:24:33;6.73;;;1.63;;
10727;SDS011;5415;59.322;18.246;2022-12-07T11:27:09;2.50;;;1.53;;
10727;SDS011;5415;59.322;18.246;2022-12-07T11:29:51;4.60;;;1.53;;
10727;SDS011;5415;59.322;18.246;2022-12-07T11:32:22;4.70;;;1.60;;
10727;SDS011;5415;59.322;18.246;2022-12-07T11:34:55;1.93;;;1.30;;
10727;SDS011;5415;59.322;18.246;2022-12-07T11:37:30;6.30;;;1.80;;
10727;SDS011;5415;59.322;18.246;2022-12-07T11:39:59;3.27;;;1.60;;
10727;SDS011;5415;59.322;18.246;2022-12-07T11:42:29;13.20;;;1.60;;
10727;SDS011;5415;59.322;18.246;2022-12-07T11:44:59;3.30;;;1.63;;
10727;SDS011;5415;59.322;18.246;2022-12-07T11:47:30;5.37;;;2.33;;
10727;SDS011;5415;59.322;18.246;2022-12-07T11:50:05;4.63;;;2.00;;
10727;SDS011;5415;59.322;18.246;2022-12-07T11:52:43;3.80;;;1.60;;
10727;SDS011;5415;59.322;18.246;2022-12-07T11:55:16;2.67;;;1.53;;
10727;SDS011;5415;59.322;18.246;2022-12-07T11:57:46;2.17;;;1.67;;
10727;SDS011;5415;59.322;18.246;2022-12-07T12:00:19;4.47;;;1.70;;
10727;SDS011;5415;59.322;18.246;2022-12-07T12:02:48;3.67;;;1.53;;
10727;SDS011;5415;59.322;18.246;2022-12-07T12:05:19;4.10;;;2.30;;
10727;SDS011;5415;59.322;18.246;2022-12-07T12:07:50;5.97;;;2.60;;
10727;SDS011;5415;59.322;18.246;2022-12-07T12:10:21;4.43;;;1.97;;
10727;SDS011;5415;59.322;18.246;2022-12-07T12:13:01;3.50;;;1.70;;
10727;SDS011;5415;59.322;18.246;2022-12-07T12:15:38;3.30;;;1.97;;
10727;SDS011;5415;59.322;18.246;2022-12-07T12:18:13;1.70;;;1.20;;
10727;SDS011;5415;59.322;18.246;2022-12-07T12:20:45;5.00;;;1.83;;
10727;SDS011;5415;59.322;18.246;2022-12-07T12:23:17;3.63;;;1.50;;
10727;SDS011;5415;59.322;18.246;2022-12-07T12:25:48;3.37;;;1.40;;
10727;SDS011;5415;59.322;18.246;2022-12-07T12:28:21;6.80;;;1.27;;
10727;SDS011;5415;59.322;18.246;2022-12-07T12:31:09;4.17;;;1.33;;
10727;SDS011;5415;59.322;18.246;2022-12-07T12:33:38;4.00;;;1.60;;
10727;SDS011;5415;59.322;18.246;2022-12-07T12:36:19;3.27;;;1.50;;
10727;SDS011;5415;59.322;18.246;2022-12-07T12:38:49;4.30;;;2.00;;
10727;SDS011;5415;59.322;18.246;2022-12-07T12:44:08;5.90;;;2.00;;
10727;SDS011;5415;59.322;18.246;2022-12-07T12:46:54;3.90;;;1.90;;
10727;SDS011;5415;59.322;18.246;2022-12-07T12:55:00;4.43;;;1.60;;
10727;SDS011;5415;59.322;18.246;2022-12-07T12:57:29;5.60;;;2.10;;
10727;SDS011;5415;59.322;18.246;2022-12-07T12:59:58;5.53;;;1.50;;
10727;SDS011;5415;59.322;18.246;2022-12-07T13:02:28;1.70;;;1.40;;
10727;SDS011;5415;59.322;18.246;2022-12-07T13:04:58;4.57;;;1.50;;
10727;SDS011;5415;59.322;18.246;2022-12-07T13:13:32;3.10;;;1.57;;
10727;SDS011;5415;59.322;18.246;2022-12-07T13:18:48;2.20;;;2.00;;
10727;SDS011;5415;59.322;18.246;2022-12-07T13:24:06;2.40;;;1.90;;
10727;SDS011;5415;59.322;18.246;2022-12-07T13:26:36;3.27;;;1.63;;
10727;SDS011;5415;59.322;18.246;2022-12-07T13:29:09;3.93;;;1.50;;
10727;SDS011;5415;59.322;18.246;2022-12-07T13:31:38;3.30;;;1.53;;
10727;SDS011;5415;59.322;18.246;2022-12-07T13:36:48;1.97;;;1.40;;
10727;SDS011;5415;59.322;18.246;2022-12-07T13:39:19;2.67;;;1.40;;
10727;SDS011;5415;59.322;18.246;2022-12-07T13:41:49;6.97;;;2.10;;
10727;SDS011;5415;59.322;18.246;2022-12-07T13:44:19;4.27;;;2.00;;
10727;SDS011;5415;59.322;18.246;2022-12-07T13:46:50;4.10;;;2.07;;
10727;SDS011;5415;59.322;18.246;2022-12-07T13:49:21;8.17;;;3.70;;
10727;SDS011;5415;59.322;18.246;2022-12-07T13:51:49;8.10;;;3.90;;
10727;SDS011;5415;59.322;18.246;2022-12-07T13:54:19;4.93;;;2.83;;
10727;SDS011;5415;59.322;18.246;2022-12-07T13:56:47;4.20;;;1.80;;
10727;SDS011;5415;59.322;18.246;2022-12-07T13:59:17;7.83;;;1.70;;
10727;SDS011;5415;59.322;18.246;2022-12-07T14:01:47;4.70;;;1.90;;
10727;SDS011;5415;59.322;18.246;2022-12-07T14:04:19;3.03;;;1.37;;
10727;SDS011;5415;59.322;18.246;2022-12-07T14:06:53;3.43;;;1.40;;
10727;SDS011;5415;59.322;18.246;2022-12-07T14:09:21;3.80;;;1.57;;
10727;SDS011;5415;59.322;18.246;2022-12-07T14:11:50;2.03;;;1.20;;
10727;SDS011;5415;59.322;18.246;2022-12-07T14:14:20;2.00;;;1.30;;
10727;SDS011;5415;59.322;18.246;2022-12-07T14:17:00;6.27;;;1.70;;
10727;SDS011;5415;59.322;18.246;2022-12-07T14:19:42;3.30;;;1.87;;
10727;SDS011;5415;59.322;18.246;2022-12-07T14:22:18;3.50;;;1.37;;
10727;SDS011;5415;59.322;18.246;2022-12-07T14:24:49;2.57;;;1.70;;
10727;SDS011;5415;59.322;18.246;2022-12-07T14:27:17;4.87;;;1.53;;
10727;SDS011;5415;59.322;18.246;2022-12-07T14:29:45;4.33;;;1.50;;
10727;SDS011;5415;59.322;18.246;2022-12-07T14:32:22;3.30;;;2.10;;
10727;SDS011;5415;59.322;18.246;2022-12-07T14:34:57;3.93;;;1.43;;
10727;SDS011;5415;59.322;18.246;2022-12-07T14:37:26;2.53;;;1.60;;
10727;SDS011;5415;59.322;18.246;2022-12-07T14:39:54;5.77;;;1.80;;
10727;SDS011;5415;59.322;18.246;2022-12-07T14:42:22;1.83;;;1.17;;
10727;SDS011;5415;59.322;18.246;2022-12-07T14:44:51;3.00;;;1.37;;
10727;SDS011;5415;59.322;18.246;2022-12-07T14:47:18;1.60;;;1.23;;
10727;SDS011;5415;59.322;18.246;2022-12-07T14:49:49;4.20;;;1.50;;
10727;SDS011;5415;59.322;18.246;2022-12-07T14:52:17;3.17;;;1.40;;
10727;SDS011;5415;59.322;18.246;2022-12-07T14:54:47;4.90;;;1.83;;
10727;SDS011;5415;59.322;18.246;2022-12-07T14:57:15;3.27;;;1.80;;
10727;SDS011;5415;59.322;18.246;2022-12-07T14:59:43;2.77;;;1.60;;
10727;SDS011;5415;59.322;18.246;2022-12-07T15:02:11;3.30;;;1.60;;
10727;SDS011;5415;59.322;18.246;2022-12-07T15:04:39;4.80;;;1.63;;
10727;SDS011;5415;59.322;18.246;2022-12-07T15:07:12;5.60;;;1.80;;
10727;SDS011;5415;59.322;18.246;2022-12-07T15:09:41;5.33;;;2.17;;
10727;SDS011;5415;59.322;18.246;2022-12-07T15:12:08;3.13;;;1.90;;
10727;SDS011;5415;59.322;18.246;2022-12-07T15:14:36;5.17;;;1.90;;
10727;SDS011;5415;59.322;18.246;2022-12-07T15:17:04;2.30;;;1.40;;
10727;SDS011;5415;59.322;18.246;2022-12-07T15:19:32;4.77;;;1.70;;
10727;SDS011;5415;59.322;18.246;2022-12-07T15:21:59;2.20;;;1.50;;
10727;SDS011;5415;59.322;18.246;2022-12-07T15:24:29;3.97;;;1.30;;
10727;SDS011;5415;59.322;18.246;2022-12-07T15:26:57;3.90;;;1.40;;
10727;SDS011;5415;59.322;18.246;2022-12-07T15:29:24;5.97;;;1.63;;
10727;SDS011;5415;59.322;18.246;2022-12-07T15:31:53;4.93;;;2.50;;